Latest Weather Observations for Parafield

IDS60801

Issued at 9:01 pm CDT Sunday 7 February 2016 (issued every 30 minutes, with the page automatically refreshed every 10 minutes)

About weather observations | Map of weather stations | Latest weather observations for SA | Other Formats
Station Details ID: 023013 Name: PARAFIELD AIRPORT Lat: -34.80 Lon: 138.63 Height: 9.5 m
Data from the previous 72 hours. | See also: Recent months at Parafield
Date/Time
CDT
Temp
°C
App
Temp
°C
Dew
Point
Rel
Hum
%
Delta-T
°C
Wind Press
QNH
hPa
Press
MSL
hPa
Rain
since 9 am
mm
Dir
 
Spd
km/h
Gust
km/h
Spd
kts
Gust
kts
07/09:00pm 23.9 22.4 15.4 59 5.1 SE 17 20 9 11 1017.9 1017.9 0.0
07/08:30pm 25.4 24.2 16.0 56 5.7 SE 17 20 9 11 1017.3 1017.3 0.0
07/08:00pm 26.4 26.0 16.3 53 6.2 WSW 13 17 7 9 1016.9 1016.9 0.0
07/07:30pm 27.3 26.5 16.0 50 6.9 SW 15 20 8 11 1016.6 1016.6 0.0
07/07:00pm 27.3 25.4 15.7 49 7.1 WSW 20 26 11 14 1016.4 1016.4 0.0
07/06:30pm 28.1 25.7 15.4 46 7.8 WSW 22 30 12 16 1016.1 1016.1 0.0
07/06:00pm 28.7 26.0 15.6 45 8.0 SW 24 30 13 16 1016.0 1016.0 0.0
07/05:30pm 29.2 26.5 15.7 44 8.3 SW 24 30 13 16 1015.9 1015.9 0.0
07/05:00pm 29.9 26.8 14.4 38 9.4 SW 24 32 13 17 1015.8 1015.8 0.0
07/04:30pm 30.0 27.6 15.3 41 9.0 SW 22 28 12 15 1015.9 1015.9 0.0
07/04:00pm 30.2 27.5 15.5 41 9.1 WSW 24 30 13 16 1016.0 1016.0 0.0
07/03:30pm 30.4 28.1 15.7 41 9.1 SW 22 30 12 16 1016.1 1016.1 0.0
07/03:00pm 30.0 27.9 16.1 43 8.6 SW 22 30 12 16 1016.3 1016.3 0.0
07/02:30pm 29.8 27.7 15.1 40 9.0 SW 20 28 11 15 1016.4 1016.4 0.0
07/02:00pm 29.5 27.0 15.2 41 8.8 WSW 22 28 12 15 1016.7 1016.7 0.0
07/01:30pm 29.6 27.2 15.3 41 8.8 WSW 22 30 12 16 1016.8 1016.8 0.0
07/01:00pm 29.5 27.8 13.7 38 9.5 W 15 24 8 13 1016.9 1016.9 0.0
07/12:30pm 29.0 28.2 12.8 36 9.5 W 9 15 5 8 1017.1 1017.1 0.0
07/12:00pm 27.8 26.3 13.0 40 8.7 WSW 13 19 7 10 1017.2 1017.2 0.0
07/11:30am 27.1 26.6 13.8 44 7.9 WNW 9 15 5 8 1017.3 1017.3 0.0
07/11:00am 25.9 26.5 15.9 54 6.1 NNW 7 13 4 7 1017.4 1017.4 0.0
07/10:30am 24.8 24.7 14.9 54 5.9 NW 9 13 5 7 1017.5 1017.5 0.0
07/10:00am 24.1 23.3 15.1 57 5.4 WNW 13 17 7 9 1017.5 1017.5 0.0
07/09:30am 23.9 24.0 15.4 59 5.1 NW 9 11 5 6 1017.4 1017.4 0.0
07/09:00am 22.8 23.3 15.6 64 4.3 NNE 7 11 4 6 1017.2 1017.2 0.0
07/08:30am 21.3 22.0 16.0 72 3.2 N 7 9 4 5 1017.1 1017.1 0.0
07/08:00am 20.1 21.2 15.7 76 2.6 NNE 4 6 2 3 1017.0 1017.0 0.0
07/07:30am 18.2 20.1 15.8 86 1.4 CALM 0 0 0 0 1016.7 1016.7 0.0
07/07:00am 16.6 17.9 14.2 86 1.4 CALM 0 0 0 0 1016.5 1016.5 0.0
07/06:30am 16.7 16.6 13.8 83 1.6 SE 7 9 4 5 1016.3 1016.3 0.0
07/06:00am 16.7 16.6 14.0 84 1.5 SSE 7 9 4 5 1016.2 1016.2 0.0
07/05:30am 15.9 15.9 14.1 89 1.0 WSW 7 9 4 5 1015.5 1015.5 0.0
07/05:00am 16.3 16.2 13.8 85 1.4 WSW 7 9 4 5 1014.9 1014.9 0.0
07/04:30am 17.2 17.2 13.7 80 2.0 N 6 7 3 4 1014.7 1014.7 0.0
07/04:00am 18.3 18.6 13.4 73 2.8 ENE 4 6 2 3 1014.7 1014.7 0.0
07/03:30am 18.0 18.0 15.1 83 1.7 N 9 11 5 6 1014.7 1014.7 0.0
07/03:00am 19.5 18.5 16.5 83 1.8 NE 17 20 9 11 1014.7 1014.7 0.0
07/02:30am 18.9 19.0 16.5 86 1.4 NE 11 13 6 7 1014.8 1014.8 0.0
07/02:00am 19.2 19.9 16.1 82 1.8 N 7 9 4 5 1015.0 1015.0 0.0
07/01:30am 19.8 20.7 16.6 82 1.9 WNW 7 9 4 5 1015.2 1015.2 0.0
07/01:00am 20.0 20.6 16.8 82 1.9 NW 9 11 5 6 1015.0 1015.0 0.0
07/12:30am 20.4 21.2 17.2 82 2.0 NNW 9 11 5 6 1014.8 1014.8 0.0
07/12:00am 21.1 23.2 17.3 79 2.3 SSE 2 7 1 4 1014.8 1014.8 0.0
 
Date/Time
CDT
Temp
°C
App
Temp
°C
Dew
Point
Rel
Hum
%
Delta-T
°C
Wind Press
QNH
hPa
Press
MSL
hPa
Rain
since 9 am
mm
Dir
 
Spd
km/h
Gust
km/h
Spd
kts
Gust
kts
06/11:30pm 21.1 22.3 16.9 77 2.6 S 6 7 3 4 1014.9 1014.9 0.0
06/11:00pm 20.8 21.1 17.0 79 2.3 SSW 11 13 6 7 1014.8 1014.8 0.0
06/10:30pm 22.5 22.8 17.8 75 2.9 SW 13 17 7 9 1014.6 1014.6 0.0
06/10:00pm 22.3 23.4 17.0 72 3.2 S 7 11 4 6 1014.3 1014.3 0.0
06/09:30pm 22.8 22.7 17.0 70 3.6 SSW 13 15 7 8 1014.0 1014.0 0.0
06/09:00pm 23.6 23.4 16.6 65 4.3 SSW 13 17 7 9 1013.6 1013.6 0.0
06/08:30pm 24.7 23.2 16.4 60 5.1 SSW 19 26 10 14 1013.4 1013.4 0.0
06/08:00pm 26.6 25.2 16.5 54 6.2 SW 19 26 10 14 1013.0 1013.0 0.0
06/07:30pm 28.0 25.1 12.8 39 8.9 SW 20 26 11 14 1012.7 1012.7 0.0
06/07:00pm 27.6 24.3 14.9 45 7.7 SW 26 32 14 17 1012.5 1012.5 0.0
06/06:30pm 28.2 24.9 14.1 42 8.4 SW 24 32 13 17 1012.3 1012.3 0.0
06/06:00pm 29.2 24.9 12.2 35 9.9 SW 26 35 14 19 1012.2 1012.2 0.0
06/05:30pm 29.7 25.9 13.5 37 9.7 SW 26 33 14 18 1012.1 1012.1 0.0
06/05:00pm 30.0 26.1 13.3 36 9.9 SW 26 33 14 18 1012.2 1012.2 0.0
06/04:30pm 30.5 26.5 12.9 34 10.4 SW 26 32 14 17 1012.2 1012.2 0.0
06/04:00pm 31.2 27.6 13.0 33 10.8 SSW 24 30 13 16 1012.5 1012.5 0.0
06/03:30pm 30.3 27.0 14.0 37 9.8 SW 24 32 13 17 1012.8 1012.8 0.0
06/03:00pm 31.6 28.0 12.9 32 11.1 SW 24 32 13 17 1012.9 1012.9 0.0
06/02:30pm 31.8 27.1 12.1 30 11.6 WSW 28 35 15 19 1013.0 1013.0 0.0
06/02:00pm 32.6 27.3 6.7 20 14.1 WSW 24 30 13 16 1013.2 1013.2 0.0
06/01:30pm 31.8 28.5 11.0 28 12.0 WSW 19 26 10 14 1013.4 1013.4 0.0
06/01:00pm 31.0 28.6 12.8 32 10.8 WSW 17 24 9 13 1013.7 1013.7 0.0
06/12:30pm 31.2 29.4 12.1 31 11.2 WSW 13 20 7 11 1014.1 1014.1 0.0
06/12:00pm 29.7 28.2 13.0 35 9.9 WSW 13 17 7 9 1014.5 1014.5 0.0
06/11:30am 29.1 29.0 13.3 37 9.4 W 6 11 3 6 1014.8 1014.8 0.0
06/11:00am 27.4 27.7 13.4 42 8.3 W 4 9 2 5 1015.1 1015.1 0.0
06/10:30am 26.1 26.3 13.2 44 7.5 NNE 4 7 2 4 1015.3 1015.3 0.0
06/10:00am 24.6 25.3 13.5 50 6.5 NW 2 7 1 4 1015.3 1015.3 0.0
06/09:30am 23.2 24.2 13.1 53 5.8 CALM 0 6 0 3 1015.4 1015.4 0.0
06/09:00am 22.4 23.0 14.3 60 4.7 N 4 7 2 4 1015.3 1015.3 0.0
06/08:30am 20.5 20.3 13.7 65 3.9 N 7 9 4 5 1015.2 1015.2 0.0
06/08:00am 18.9 18.7 13.1 69 3.3 N 6 9 3 5 1014.9 1014.9 0.0
06/07:30am 17.2 17.2 13.5 79 2.1 NNW 6 6 3 3 1014.4 1014.4 0.0
06/07:00am 15.6 14.4 12.9 84 1.5 NE 11 13 6 7 1014.1 1014.1 0.0
06/06:30am 15.1 14.5 12.2 83 1.6 NE 7 9 4 5 1013.9 1013.9 0.0
06/06:00am 15.6 15.4 12.9 84 1.5 N 6 7 3 4 1013.7 1013.7 0.0
06/05:30am 15.5 14.6 12.6 83 1.6 NE 9 11 5 6 1013.4 1013.4 0.0
06/05:00am 16.2 15.9 12.7 80 1.9 NNE 6 7 3 4 1013.4 1013.4 0.0
06/04:30am 16.6 16.2 12.4 76 2.3 N 6 7 3 4 1013.5 1013.5 0.0
06/04:00am 17.0 17.7 12.3 74 2.6 CALM 0 7 0 4 1013.4 1013.4 0.0
06/03:30am 16.6 16.6 12.4 76 2.3 SSE 4 7 2 4 1013.8 1013.8 0.0
06/03:00am 17.9 18.4 11.7 67 3.4 CALM 0 0 0 0 1014.1 1014.1 0.0
06/02:30am 17.1 16.5 11.8 71 2.9 ENE 6 9 3 5 1014.3 1014.3 0.0
06/02:00am 17.7 17.9 11.9 69 3.2 WSW 2 7 1 4 1014.4 1014.4 0.0
06/01:30am 19.5 17.7 11.0 58 4.6 SE 11 15 6 8 1014.6 1014.6 0.0
06/01:00am 18.4 17.2 11.7 65 3.7 SE 9 13 5 7 1014.7 1014.7 0.0
06/12:30am 18.6 17.2 12.1 66 3.6 SE 11 13 6 7 1014.9 1014.9 0.0
06/12:00am 18.8 17.4 12.3 66 3.6 SE 11 13 6 7 1015.1 1015.1 0.0
 
Date/Time
CDT
Temp
°C
App
Temp
°C
Dew
Point
Rel
Hum
%
Delta-T
°C
Wind Press
QNH
hPa
Press
MSL
hPa
Rain
since 9 am
mm
Dir
 
Spd
km/h
Gust
km/h
Spd
kts
Gust
kts
05/11:30pm 19.3 18.2 12.1 63 4.0 S 9 13 5 7 1015.3 1015.3 0.0
05/11:00pm 19.7 18.6 12.0 61 4.3 SSE 9 13 5 7 1015.4 1015.4 0.0
05/10:30pm 20.3 18.5 12.0 59 4.6 SSE 13 19 7 10 1015.4 1015.4 0.0
05/10:00pm 20.8 19.0 12.2 58 4.8 SSE 13 19 7 10 1015.4 1015.4 0.0
05/09:30pm 21.7 18.6 12.3 55 5.3 SE 20 28 11 15 1015.1 1015.1 0.0
05/09:00pm 22.3 20.7 12.8 55 5.4 SE 13 20 7 11 1014.8 1014.8 0.0
05/08:30pm 23.3 22.5 12.9 52 6.0 S 9 15 5 8 1014.7 1014.7 0.0
05/08:00pm 24.9 22.1 13.1 48 6.9 SE 20 28 11 15 1014.3 1014.3 0.0
05/07:30pm 26.7 24.0 13.4 43 7.8 SE 20 28 11 15 1013.7 1013.7 0.0
05/07:00pm 27.4 23.2 13.4 42 8.3 SE 28 35 15 19 1013.3 1013.3 0.0
05/06:30pm 28.8 25.8 12.7 37 9.5 SSE 20 30 11 16 1013.0 1013.0 0.0
05/06:00pm 27.7 24.3 14.7 45 7.8 WSW 26 32 14 17 1013.0 1013.0 0.0
05/05:30pm 28.2 24.4 14.8 44 8.1 WSW 28 33 15 18 1013.2 1013.2 0.0
05/05:00pm 28.1 24.7 14.7 44 8.1 W 26 33 14 18 1013.4 1013.4 0.0
05/04:30pm 27.7 24.0 14.0 43 8.2 W 26 33 14 18 1013.7 1013.7 0.0
05/04:00pm 27.5 23.5 14.2 44 8.0 W 28 33 15 18 1014.0 1014.0 0.0
05/03:30pm 26.5 23.0 14.6 48 7.1 WSW 26 33 14 18 1014.6 1014.6 0.0
05/03:00pm 26.1 22.8 13.9 47 7.2 W 24 33 13 18 1015.1 1015.1 0.0
05/02:30pm 26.0 22.9 13.5 46 7.3 WSW 22 28 12 15 1015.6 1015.6 0.0
05/02:00pm 25.5 22.2 12.7 45 7.4 WSW 22 30 12 16 1015.9 1015.9 0.0
05/01:30pm 25.5 22.7 11.3 41 8.0 WSW 17 26 9 14 1016.4 1016.4 0.0
05/01:00pm 24.5 22.1 10.0 40 8.0 W 13 26 7 14 1016.8 1016.8 0.0
05/12:30pm 23.6 21.3 10.3 43 7.3 W 13 20 7 11 1017.3 1017.3 0.0
05/12:00pm 22.6 20.8 11.0 48 6.4 S 11 19 6 10 1017.7 1017.7 0.0
05/11:30am 21.7 20.0 9.9 47 6.4 SSE 9 19 5 10 1018.1 1018.1 0.0
05/11:00am 20.4 17.5 9.6 50 5.8 SE 15 22 8 12 1018.6 1018.6 0.0
05/10:30am 19.4 16.9 9.6 53 5.2 ESE 13 20 7 11 1018.8 1018.8 0.0
05/10:00am 19.1 15.7 10.4 57 4.7 SE 19 26 10 14 1019.1 1019.1 0.0
05/09:30am 17.6 15.3 10.5 63 3.8 SE 13 20 7 11 1019.5 1019.5 0.0
05/09:00am 17.0 14.1 11.1 68 3.2 S 17 22 9 12 1019.4 1019.4 0.0
05/08:30am 16.0 13.5 11.0 72 2.7 S 15 22 8 12 1019.4 1019.4 0.0
05/08:00am 14.9 13.5 10.9 77 2.1 SE 9 13 5 7 1019.2 1019.2 0.0
05/07:30am 13.7 11.9 10.7 82 1.6 SSE 11 15 6 8 1019.3 1019.3 0.0
05/07:00am 13.0 10.9 9.8 81 1.6 SE 11 13 6 7 1018.9 1018.9 0.0
05/06:30am 13.1 10.6 9.7 80 1.7 ESE 13 17 7 9 1018.6 1018.6 0.0
05/06:00am 13.8 10.6 10.0 78 2.0 ESE 17 19 9 10 1018.2 1018.2 0.0
05/05:30am 13.7 12.4 10.1 79 1.9 SE 7 11 4 6 1018.0 1018.0 0.0
05/05:00am 13.4 11.9 10.6 83 1.5 ESE 9 15 5 8 1017.7 1017.7 0.0
05/04:30am 13.3 12.8 10.7 84 1.4 S 4 7 2 4 1017.4 1017.4 0.0
05/04:00am 14.1 13.8 11.4 84 1.4 E 4 7 2 4 1017.3 1017.3 0.0
05/03:30am 14.2 14.6 11.4 83 1.5 CALM 0 0 0 0 1017.0 1017.0 0.0
05/03:00am 14.3 13.0 11.3 82 1.6 S 9 11 5 6 1017.2 1017.2 0.0
05/02:30am 14.6 13.0 11.6 82 1.6 SSW 11 13 6 7 1017.4 1017.4 0.0
05/02:00am 14.5 12.9 11.5 82 1.6 S 11 15 6 8 1017.5 1017.5 0.0
05/01:30am 14.7 13.4 11.3 80 1.8 SSW 9 13 5 7 1017.8 1017.8 0.0
05/01:00am 15.3 14.7 11.7 79 1.9 S 6 9 3 5 1018.1 1018.1 0.0
05/12:30am 15.0 14.2 11.8 81 1.7 SSW 7 11 4 6 1018.1 1018.1 0.0
05/12:00am 15.4 13.5 11.8 79 1.9 S 13 15 7 8 1018.2 1018.2 0.0
 
Date/Time
CDT
Temp
°C
App
Temp
°C
Dew
Point
Rel
Hum
%
Delta-T
°C
Wind Press
QNH
hPa
Press
MSL
hPa
Rain
since 9 am
mm
Dir
 
Spd
km/h
Gust
km/h
Spd
kts
Gust
kts
04/11:30pm 15.8 14.0 12.0 78 2.1 SSW 13 15 7 8 1018.3 1018.3 0.0
04/11:00pm 16.2 14.0 12.0 76 2.3 SSW 15 20 8 11 1018.5 1018.5 0.0
04/10:30pm 16.6 13.9 11.7 73 2.7 SSW 17 20 9 11 1018.7 1018.7 0.0
04/10:00pm 17.0 14.3 11.7 71 2.9 SSW 17 22 9 12 1018.7 1018.7 0.0
04/09:30pm 17.2 14.5 11.7 70 3.0 SSW 17 20 9 11 1018.5 1018.5 0.0

Other Formats:

Comma delimited format used in spreadsheet applications
http://www.bom.gov.au/fwo/IDS60801/IDS60801.95677.axf

JavaScript Object Notation format (JSON) in row-major order
http://www.bom.gov.au/fwo/IDS60801/IDS60801.95677.json